createdAt,value
2023-05-19T00:01:45.121Z,59.90
2023-05-19T00:06:51.569Z,60.25
2023-05-19T00:11:53.896Z,60.14
2023-05-19T00:16:57.647Z,60.51
2023-05-19T00:21:59.590Z,60.48
2023-05-19T00:27:01.425Z,60.54
2023-05-19T00:32:03.572Z,60.53
2023-05-19T00:37:05.637Z,60.56
2023-05-19T00:42:07.619Z,60.20
2023-05-19T00:47:09.457Z,60.73
2023-05-19T00:52:11.400Z,61.03
2023-05-19T00:57:14.984Z,61.11
2023-05-19T01:02:17.589Z,60.70
2023-05-19T01:07:20.893Z,60.88
2023-05-19T01:12:23.089Z,61.09
2023-05-19T01:17:49.138Z,60.81
2023-05-19T01:23:17.546Z,61.45
2023-05-19T01:28:44.326Z,72.31
2023-05-19T01:33:47.710Z,71.51
2023-05-19T01:38:57.770Z,58.24
2023-05-19T01:44:00.057Z,52.56
2023-05-19T01:49:02.567Z,52.94
2023-05-19T01:54:04.431Z,55.37
2023-05-19T01:59:28.115Z,55.78
2023-05-19T02:04:55.722Z,56.76
2023-05-19T02:10:23.940Z,57.69
2023-05-19T02:15:33.574Z,58.10
2023-05-19T02:20:35.479Z,59.12
2023-05-19T02:25:37.828Z,59.61
2023-05-19T02:30:39.603Z,60.15
2023-05-19T02:35:41.362Z,60.60
2023-05-19T02:40:43.278Z,60.69
2023-05-19T02:45:45.218Z,71.27
2023-05-19T02:50:47.004Z,69.32
2023-05-19T02:55:48.872Z,55.12
2023-05-19T03:00:51.161Z,51.69
2023-05-19T03:05:53.493Z,52.65
2023-05-19T03:10:55.224Z,53.89
2023-05-19T03:15:58.756Z,54.67
2023-05-19T03:21:00.858Z,56.26
2023-05-19T03:26:02.801Z,57.45
2023-05-19T03:31:04.692Z,58.38
2023-05-19T03:36:07.500Z,59.54
2023-05-19T03:41:09.264Z,60.33
2023-05-19T03:46:13.974Z,70.87
2023-05-19T03:51:16.085Z,68.84
2023-05-19T03:56:17.867Z,56.07
2023-05-19T04:01:19.846Z,52.92
2023-05-19T04:06:21.722Z,54.15
2023-05-19T04:11:23.623Z,54.89
2023-05-19T04:16:25.712Z,55.63
2023-05-19T04:21:27.776Z,56.90
2023-05-19T04:26:30.670Z,58.07
2023-05-19T04:31:33.896Z,58.98
2023-05-19T04:36:37.315Z,59.59
2023-05-19T04:41:40.080Z,60.57
2023-05-19T04:46:42.313Z,70.48
2023-05-19T04:51:45.678Z,68.49
2023-05-19T04:56:47.450Z,56.63
2023-05-19T05:01:49.410Z,53.16
2023-05-19T05:06:51.524Z,54.27
2023-05-19T05:11:54.018Z,55.37
2023-05-19T05:16:56.492Z,56.84
2023-05-19T05:22:00.000Z,57.69
2023-05-19T05:27:01.833Z,58.63
2023-05-19T05:32:04.014Z,58.82
2023-05-19T05:37:06.386Z,59.11
2023-05-19T05:42:12.048Z,59.49
2023-05-19T05:47:15.251Z,60.86
2023-05-19T05:52:20.750Z,60.19
2023-05-19T05:57:23.211Z,60.20
2023-05-19T06:02:25.321Z,60.05
2023-05-19T06:07:27.366Z,60.10
2023-05-19T06:12:29.158Z,60.17
2023-05-19T06:17:31.304Z,60.08
2023-05-19T06:22:33.410Z,59.75
2023-05-19T06:27:35.692Z,59.80
2023-05-19T06:32:37.727Z,59.95
2023-05-19T06:37:39.756Z,59.73
2023-05-19T06:42:41.643Z,59.44
2023-05-19T06:47:44.810Z,59.20
2023-05-19T06:52:46.719Z,58.98
2023-05-19T06:57:48.618Z,58.86
2023-05-19T07:02:50.599Z,58.64
2023-05-19T07:07:52.667Z,58.49
2023-05-19T07:12:54.630Z,57.97
2023-05-19T07:17:58.292Z,57.64
2023-05-19T07:23:02.279Z,57.25
2023-05-19T07:28:04.470Z,56.80
2023-05-19T07:33:06.563Z,56.39
2023-05-19T07:38:08.326Z,56.02
2023-05-19T07:43:11.142Z,55.70
2023-05-19T07:48:13.434Z,55.53
2023-05-19T07:53:15.590Z,55.66
2023-05-19T07:58:17.484Z,55.71
2023-05-19T08:03:20.294Z,55.41
2023-05-19T08:08:22.760Z,55.38
2023-05-19T08:13:24.833Z,54.65
2023-05-19T08:18:26.722Z,54.90
2023-05-19T08:23:28.922Z,54.45
2023-05-19T08:28:31.000Z,53.82
2023-05-19T08:33:32.869Z,53.56
2023-05-19T08:38:34.752Z,53.43
2023-05-19T08:43:37.140Z,53.12
2023-05-19T08:48:43.645Z,52.51
2023-05-19T08:53:53.130Z,51.94
2023-05-19T08:58:59.751Z,51.69
2023-05-19T09:04:03.398Z,51.69
2023-05-19T09:09:05.872Z,51.30
2023-05-19T09:14:07.655Z,51.02
2023-05-19T09:19:16.739Z,50.78
2023-05-19T09:24:18.775Z,50.24
2023-05-19T09:29:20.666Z,49.28
2023-05-19T09:34:24.405Z,49.31
2023-05-19T09:39:28.312Z,49.48
2023-05-19T09:44:30.995Z,48.40
2023-05-19T09:49:32.981Z,48.14
2023-05-19T09:54:35.180Z,49.17
2023-05-19T09:59:38.775Z,49.30
2023-05-19T10:04:42.363Z,48.52
2023-05-19T10:09:45.702Z,48.63
2023-05-19T10:14:49.426Z,49.03
2023-05-19T10:19:54.211Z,49.40
2023-05-19T10:24:56.248Z,49.86
2023-05-19T10:30:05.583Z,49.80
2023-05-19T10:35:25.852Z,50.10
2023-05-19T10:40:34.036Z,50.17
2023-05-19T10:45:48.754Z,51.19
2023-05-19T10:50:56.337Z,51.90
2023-05-19T10:56:04.555Z,52.92
2023-05-19T11:01:09.565Z,53.78
2023-05-19T11:06:30.647Z,53.62
2023-05-19T11:11:48.056Z,54.57
2023-05-19T11:16:53.168Z,54.80
2023-05-19T11:21:57.093Z,54.75
2023-05-19T11:26:58.930Z,55.67
2023-05-19T11:32:01.239Z,56.04
2023-05-19T11:37:04.732Z,56.55
2023-05-19T11:42:15.439Z,57.27
2023-05-19T11:47:17.395Z,57.86
2023-05-19T11:52:22.614Z,58.48
2023-05-19T11:57:24.487Z,59.26
2023-05-19T12:02:27.560Z,59.52
2023-05-19T12:07:29.860Z,59.66
2023-05-19T12:12:31.714Z,60.58
2023-05-19T12:17:34.414Z,61.01
2023-05-19T12:22:37.500Z,61.10
2023-05-19T12:27:42.246Z,61.37
2023-05-19T12:32:46.484Z,65.33
2023-05-19T12:37:48.877Z,60.65
2023-05-19T12:42:52.918Z,54.75
2023-05-19T12:47:55.616Z,56.43
2023-05-19T12:52:59.319Z,58.08
2023-05-19T12:58:06.694Z,59.34
2023-05-19T13:03:16.500Z,60.56
2023-05-19T13:08:21.294Z,61.97
2023-05-19T13:13:23.224Z,67.14
2023-05-19T13:18:27.060Z,62.40
2023-05-19T13:23:28.912Z,52.09
2023-05-19T13:28:31.102Z,54.43
2023-05-19T13:33:33.383Z,56.22
2023-05-19T13:38:35.369Z,57.47
2023-05-19T13:43:37.599Z,58.61
2023-05-19T13:48:39.669Z,59.41
2023-05-19T13:53:42.232Z,59.88
2023-05-19T13:58:44.304Z,59.98
2023-05-19T14:03:46.162Z,60.82
2023-05-19T14:08:48.064Z,61.08
2023-05-19T14:13:52.520Z,61.46
2023-05-19T14:18:54.811Z,61.40
2023-05-19T14:23:57.635Z,67.49
2023-05-19T14:29:00.139Z,62.10
2023-05-19T14:34:02.286Z,51.66
2023-05-19T14:39:04.180Z,52.38
2023-05-19T14:44:06.344Z,54.33
2023-05-19T14:49:08.524Z,56.84
2023-05-19T14:54:10.589Z,57.35
2023-05-19T14:59:12.468Z,58.50
2023-05-19T15:04:14.341Z,59.42
2023-05-19T15:09:16.689Z,59.83
2023-05-19T15:14:18.617Z,60.14
2023-05-19T15:19:21.099Z,60.74
2023-05-19T15:24:23.971Z,61.41
2023-05-19T15:29:26.088Z,66.77
2023-05-19T15:34:28.211Z,63.46
2023-05-19T15:39:31.095Z,53.14
2023-05-19T15:44:33.060Z,52.33
2023-05-19T15:49:35.241Z,55.03
2023-05-19T15:54:37.152Z,57.27
2023-05-19T15:59:39.209Z,58.13
2023-05-19T16:04:41.181Z,59.47
2023-05-19T16:09:43.168Z,59.78
2023-05-19T16:14:45.034Z,59.88
2023-05-19T16:19:46.855Z,60.38
2023-05-19T16:24:48.996Z,60.66
2023-05-19T16:29:50.887Z,60.94
2023-05-19T16:34:52.952Z,60.98
2023-05-19T16:39:54.949Z,60.89
2023-05-19T16:44:57.118Z,61.16
2023-05-19T16:49:59.013Z,61.47
2023-05-19T16:55:00.979Z,61.47
2023-05-19T17:00:03.775Z,61.69
2023-05-19T17:05:06.294Z,61.70
2023-05-19T17:10:09.383Z,69.90
2023-05-19T17:15:11.586Z,63.72
2023-05-19T17:20:13.540Z,54.17
2023-05-19T17:25:16.060Z,53.74
2023-05-19T17:30:18.003Z,55.76
2023-05-19T17:35:20.190Z,57.31
2023-05-19T17:40:22.083Z,58.60
2023-05-19T17:45:24.359Z,60.05
2023-05-19T17:50:26.240Z,60.92
2023-05-19T17:55:30.529Z,70.19
2023-05-19T18:00:33.013Z,66.40
2023-05-19T18:05:36.927Z,54.20
2023-05-19T18:10:42.265Z,51.80
2023-05-19T18:15:44.239Z,53.55
2023-05-19T18:20:46.209Z,54.98
2023-05-19T18:25:51.175Z,56.91
2023-05-19T18:31:05.370Z,58.32
2023-05-19T18:36:08.110Z,59.36
2023-05-19T18:41:10.104Z,60.75
2023-05-19T18:46:12.977Z,66.65
2023-05-19T18:51:15.485Z,67.18
2023-05-19T18:56:30.608Z,63.59
2023-05-19T19:01:32.487Z,54.39
2023-05-19T19:06:34.482Z,53.00
2023-05-19T19:11:36.621Z,55.39
2023-05-19T19:16:38.741Z,58.05
2023-05-19T19:21:41.506Z,59.71
2023-05-19T19:26:43.494Z,66.93
2023-05-19T19:31:45.742Z,66.19
2023-05-19T19:36:47.987Z,59.91
2023-05-19T19:41:50.137Z,54.29
2023-05-19T19:46:52.272Z,55.55
2023-05-19T19:51:54.349Z,58.49
2023-05-19T19:56:56.286Z,60.00
2023-05-19T20:01:58.277Z,69.47
2023-05-19T20:07:00.452Z,67.05
2023-05-19T20:12:02.429Z,63.11
2023-05-19T20:17:05.020Z,56.20
2023-05-19T20:22:06.909Z,55.56
2023-05-19T20:27:09.205Z,58.21
2023-05-19T20:32:11.268Z,66.26
2023-05-19T20:37:13.457Z,65.42
2023-05-19T20:42:15.464Z,61.64
2023-05-19T20:47:18.958Z,54.97
2023-05-19T20:52:21.136Z,55.26
2023-05-19T20:57:23.151Z,57.87
2023-05-19T21:02:25.000Z,59.25
2023-05-19T21:07:27.089Z,67.42
2023-05-19T21:12:33.456Z,66.40
2023-05-19T21:17:35.660Z,62.01
2023-05-19T21:22:37.893Z,55.94
2023-05-19T21:27:40.123Z,55.32
2023-05-19T21:32:42.364Z,57.57
2023-05-19T21:37:44.286Z,60.33
2023-05-19T21:42:46.262Z,67.81
2023-05-19T21:47:48.053Z,67.32
2023-05-19T21:52:50.010Z,62.81
2023-05-19T21:57:51.819Z,56.39
2023-05-19T22:02:53.804Z,55.19
2023-05-19T22:07:55.661Z,56.58
2023-05-19T22:12:58.352Z,59.11
2023-05-19T22:18:00.229Z,66.95
2023-05-19T22:23:03.229Z,66.50
2023-05-19T22:28:07.460Z,61.56
2023-05-19T22:33:11.010Z,55.59
2023-05-19T22:38:12.952Z,54.39
2023-05-19T22:43:14.759Z,56.86
2023-05-19T22:48:16.804Z,58.30
2023-05-19T22:53:18.686Z,60.56
2023-05-19T22:58:20.618Z,67.76
2023-05-19T23:03:22.537Z,68.58
2023-05-19T23:08:24.314Z,62.90
2023-05-19T23:13:26.236Z,56.09
2023-05-19T23:18:28.172Z,54.72
2023-05-19T23:23:29.871Z,56.84
2023-05-19T23:28:31.824Z,59.12
2023-05-19T23:33:33.596Z,66.62
2023-05-19T23:38:37.228Z,66.71
2023-05-19T23:43:39.109Z,62.18
2023-05-19T23:48:41.088Z,55.12
2023-05-19T23:53:42.854Z,53.84
2023-05-19T23:58:44.648Z,55.72
